Time;durP1;ratioP1;P1;durP2;ratioP2;P2;SDS_P1;SDS_P2;PMS_P1;PMS_P2;Temp;Humidity;BMP_temperature;BMP_pressure;BME280_temperature;BME280_humidity;BME280_pressure;Samples;Min_cycle;Max_cycle;Signal;HPM_P1;HPM_P2
2022/08/05 00:01:50;;;;;;;23.02;16.75;;;;;;;17.14;100.00;100061.11;1756532;81;21081;-68
2022/08/05 00:04:17;;;;;;;21.48;17.65;;;;;;;17.14;100.00;100062.44;1756334;81;21482;-67
2022/08/05 00:06:44;;;;;;;23.57;16.27;;;;;;;17.15;100.00;100065.47;1756222;81;20930;-71
2022/08/05 00:09:10;;;;;;;23.27;16.75;;;;;;;17.18;100.00;100056.81;1756455;81;21073;-68
2022/08/05 00:11:37;;;;;;;25.08;18.02;;;;;;;17.21;100.00;100057.09;1752645;81;20995;-69
2022/08/05 00:14:04;;;;;;;26.90;17.62;;;;;;;17.21;100.00;100057.09;1748113;82;21514;-69
2022/08/05 00:16:30;;;;;;;22.02;17.07;;;;;;;17.22;100.00;100053.45;1747890;82;21115;-68
2022/08/05 00:18:56;;;;;;;25.45;17.98;;;;;;;17.34;100.00;100053.12;1748298;82;20977;-68
2022/08/05 00:21:23;;;;;;;22.42;17.07;;;;;;;17.33;100.00;100048.28;1748108;82;21010;-68
2022/08/05 00:23:50;;;;;;;20.75;17.45;;;;;;;17.33;100.00;100045.62;1748303;82;21065;-68
2022/08/05 00:26:16;;;;;;;20.88;16.05;;;;;;;17.33;100.00;100045.62;1748206;82;21108;-69
2022/08/05 00:28:43;;;;;;;20.02;16.45;;;;;;;17.35;100.00;100045.53;1748213;82;21747;-69
2022/08/05 00:31:10;;;;;;;20.48;16.40;;;;;;;17.35;100.00;100037.55;1748080;82;21115;-69
2022/08/05 00:33:36;;;;;;;22.85;15.48;;;;;;;17.35;100.00;100040.20;1747976;82;21069;-68
2022/08/05 00:36:04;;;;;;;21.50;16.55;;;;;;;17.34;100.00;100039.33;1748343;82;21613;-67
2022/08/05 00:38:30;;;;;;;24.77;16.35;;;;;;;17.34;100.00;100041.98;1747899;82;21037;-65
2022/08/05 00:41:04;;;;;;;19.05;15.43;;;;;;;17.31;100.00;100036.87;1748018;82;21224;-68
2022/08/05 00:43:25;;;;;;;17.17;14.65;;;;;;;17.31;100.00;100032.05;1747177;82;21121;-69
2022/08/05 00:45:52;;;;;;;20.57;15.90;;;;;;;17.31;100.00;100027.56;1748135;82;21025;-70
2022/08/05 00:48:21;;;;;;;16.20;14.35;;;;;;;17.30;100.00;100027.20;1747957;82;21044;-68
2022/08/05 00:50:49;;;;;;;20.70;15.53;;;;;;;17.30;100.00;100027.20;1747755;82;21160;-70
2022/08/05 00:53:19;;;;;;;26.62;16.48;;;;;;;17.30;100.00;100032.53;1747822;82;21186;-68
2022/08/05 00:55:47;;;;;;;25.48;15.72;;;;;;;17.31;100.00;100032.89;1747941;82;21572;-67
2022/08/05 00:58:17;;;;;;;21.20;16.27;;;;;;;17.28;100.00;100030.44;1742547;82;21558;-69
2022/08/05 01:00:44;;;;;;;21.17;16.12;;;;;;;17.28;100.00;100023.79;1734874;82;21078;-68
2022/08/05 01:03:11;;;;;;;17.40;14.18;;;;;;;17.27;100.00;100032.70;1734654;82;21106;-68
2022/08/05 01:05:37;;;;;;;18.90;15.30;;;;;;;17.25;100.00;100029.78;1734742;82;21304;-68
2022/08/05 01:08:04;;;;;;;26.37;16.02;;;;;;;17.24;100.00;100032.92;1734670;82;21062;-68
2022/08/05 01:10:51;;;;;;;18.67;15.63;;;;;;;17.20;100.00;100036.73;1734221;82;21073;-69
2022/08/05 01:13:33;;;;;;;18.67;14.47;;;;;;;17.19;100.00;100029.72;1733927;82;21093;-69
2022/08/05 01:16:01;;;;;;;;;;;;;;;17.19;100.00;100030.56;1737008;82;21101;-68
2022/08/05 01:18:33;;;;;;;20.88;14.90;;;;;;;17.20;100.00;100034.08;1734046;82;21100;-68
2022/08/05 01:21:11;;;;;;;17.85;15.18;;;;;;;17.16;100.00;100031.23;1734378;82;21046;-67
2022/08/05 01:24:14;;;;;;;22.65;15.68;;;;;;;17.14;100.00;100034.50;1734037;82;21463;-69
2022/08/05 01:27:12;;;;;;;22.55;16.60;;;;;;;17.13;100.00;100035.44;1734236;82;21018;-68
2022/08/05 01:29:45;;;;;;;29.42;16.65;;;;;;;17.10;100.00;100025.85;1686397;82;21100;-68
2022/08/05 01:32:16;;;;;;;21.00;16.87;;;;;;;17.08;100.00;100033.08;1734221;82;21111;-68
2022/08/05 01:34:58;;;;;;;21.42;16.15;;;;;;;17.06;100.00;100034.13;1734382;82;21376;-67
2022/08/05 01:37:33;;;;;;;19.98;16.05;;;;;;;17.02;100.00;100027.30;1734157;82;21026;-68
2022/08/05 01:40:00;;;;;;;24.52;17.48;;;;;;;16.97;100.00;100021.80;1734490;82;21050;-69
2022/08/05 01:42:27;;;;;;;28.55;18.05;;;;;;;16.94;100.00;100020.68;1734162;82;21062;-67
2022/08/05 01:44:56;;;;;;;22.90;18.10;;;;;;;16.93;100.00;100024.30;1734564;82;21092;-68
2022/08/05 01:47:23;;;;;;;20.20;16.07;;;;;;;16.92;100.00;100030.56;1733531;82;21089;-68
2022/08/05 01:49:51;;;;;;;22.90;17.25;;;;;;;16.91;100.00;100028.87;1734550;82;21083;-67
2022/08/05 01:52:18;;;;;;;21.90;17.05;;;;;;;16.90;100.00;100024.48;1734287;82;21561;-67
2022/08/05 01:54:49;;;;;;;25.82;17.82;;;;;;;16.89;100.00;100030.77;1722037;82;21069;-68
2022/08/05 01:57:21;;;;;;;22.55;16.65;;;;;;;16.88;100.00;100037.51;1707269;83;21075;-67
2022/08/05 01:59:47;;;;;;;23.07;18.00;;;;;;;16.86;100.00;100035.42;1707174;83;21062;-69
2022/08/05 02:02:14;;;;;;;27.67;18.45;;;;;;;16.87;100.00;100047.30;1732211;82;21113;-69
2022/08/05 02:04:41;;;;;;;21.97;16.20;;;;;;;16.90;100.00;100044.44;1734044;82;21058;-69
2022/08/05 02:07:07;;;;;;;23.02;17.57;;;;;;;16.93;100.00;100048.25;1734509;82;21081;-70
2022/08/05 02:09:34;;;;;;;20.95;16.10;;;;;;;16.96;100.00;100040.05;1734115;82;21285;-68
2022/08/05 02:12:09;;;;;;;23.55;16.55;;;;;;;17.02;100.00;100041.94;1733912;82;21054;-68
2022/08/05 02:14:46;;;;;;;22.67;17.55;;;;;;;17.06;100.00;100050.09;1713171;82;20999;-67
2022/08/05 02:17:20;;;;;;;20.35;16.90;;;;;;;17.09;100.00;100044.56;1734459;82;21039;-68
2022/08/05 02:19:52;;;;;;;22.60;16.82;;;;;;;17.13;100.00;100047.41;1733353;82;21247;-68
2022/08/05 02:22:22;;;;;;;23.67;17.40;;;;;;;17.17;100.00;100045.78;1734297;82;21873;-67
2022/08/05 02:24:57;;;;;;;22.90;17.83;;;;;;;17.19;100.00;100040.36;1733873;82;21125;-68
2022/08/05 02:27:23;;;;;;;22.73;16.95;;;;;;;17.24;100.00;100040.91;1734341;82;22459;-69
2022/08/05 02:29:50;;;;;;;25.35;17.32;;;;;;;17.29;100.00;100045.44;1734153;82;21043;-67
2022/08/05 02:32:19;;;;;;;20.40;16.65;;;;;;;17.33;100.00;100046.95;1734447;82;21593;-68
2022/08/05 02:34:46;;;;;;;17.07;14.87;;;;;;;17.38;100.00;100046.16;1734230;82;21241;-68
2022/08/05 02:37:13;;;;;;;27.85;16.42;;;;;;;17.44;100.00;100044.03;1734181;82;20994;-67
2022/08/05 02:39:39;;;;;;;20.60;15.63;;;;;;;17.47;100.00;100050.51;1734258;82;21003;-67
2022/08/05 02:42:07;;;;;;;19.27;16.17;;;;;;;17.51;100.00;100048.02;1734145;82;21109;-68
2022/08/05 02:44:35;;;;;;;19.90;15.30;;;;;;;17.55;100.00;100046.83;1734163;82;21101;-67
2022/08/05 02:47:04;;;;;;;23.00;15.93;;;;;;;17.58;100.00;100043.98;1734357;82;21783;-67
2022/08/05 02:49:36;;;;;;;17.62;14.87;;;;;;;17.60;100.00;100047.41;1733909;82;21120;-69
2022/08/05 02:52:04;;;;;;;19.32;15.83;;;;;;;17.63;100.00;100045.86;1734410;82;21089;-70
2022/08/05 02:54:32;;;;;;;21.45;15.72;;;;;;;17.65;100.00;100045.27;1734156;82;22266;-67
2022/08/05 02:56:59;;;;;;;21.90;15.78;;;;;;;17.69;100.00;100041.91;1734499;82;21085;-70
2022/08/05 02:59:25;;;;;;;20.85;15.80;;;;;;;17.71;100.00;100031.52;1742770;81;21901;-70
2022/08/05 03:01:53;;;;;;;19.10;15.60;;;;;;;17.70;100.00;100023.17;1748451;82;21521;-69
2022/08/05 03:04:19;;;;;;;20.30;16.00;;;;;;;17.75;100.00;100022.38;1721114;82;21033;-72
2022/08/05 03:06:46;;;;;;;20.68;15.85;;;;;;;17.77;100.00;100031.11;1748347;82;21068;-69
2022/08/05 03:09:13;;;;;;;18.57;15.50;;;;;;;17.79;100.00;100038.52;1748200;82;21077;-70
2022/08/05 03:11:42;;;;;;;16.80;15.03;;;;;;;17.81;100.00;100040.64;1748478;82;21516;-71
2022/08/05 03:14:10;;;;;;;18.45;14.40;;;;;;;17.83;100.00;100040.54;1748134;82;21529;-68
2022/08/05 03:16:36;;;;;;;20.97;15.30;;;;;;;17.88;100.00;100034.89;1748550;82;21033;-69
2022/08/05 03:19:03;;;;;;;25.40;15.70;;;;;;;17.92;100.00;100033.70;1748064;82;21573;-71
2022/08/05 03:21:30;;;;;;;19.12;15.85;;;;;;;17.93;100.00;100034.94;1748369;82;21044;-70
2022/08/05 03:23:56;;;;;;;23.18;17.25;;;;;;;17.94;100.00;100042.45;1748039;82;21883;-70
2022/08/05 03:26:22;;;;;;;17.98;14.50;;;;;;;17.96;100.00;100047.19;1748009;82;21084;-70
2022/08/05 03:28:49;;;;;;;20.20;14.20;;;;;;;17.99;100.00;100039.86;1748399;82;21526;-69
2022/08/05 03:31:16;;;;;;;15.10;13.50;;;;;;;18.01;100.00;100035.27;1748233;82;21042;-72
2022/08/05 03:33:42;;;;;;;21.50;14.95;;;;;;;18.03;100.00;100035.14;1748487;82;21077;-69
2022/08/05 03:36:09;;;;;;;23.32;14.63;;;;;;;18.04;100.00;100034.20;1748141;82;21229;-70
2022/08/05 03:38:41;;;;;;;19.45;14.90;;;;;;;18.06;100.00;100048.28;1748511;82;21014;-68
2022/08/05 03:41:08;;;;;;;19.42;15.28;;;;;;;18.10;100.00;100055.56;1747923;82;21109;-71
2022/08/05 03:43:35;;;;;;;22.93;16.35;;;;;;;18.12;100.00;100044.31;1748184;82;21541;-70
2022/08/05 03:46:01;;;;;;;19.98;16.02;;;;;;;18.13;100.00;100040.23;1748314;82;21477;-70
2022/08/05 03:48:28;;;;;;;24.32;16.10;;;;;;;18.18;100.00;100035.42;1748113;82;21072;-69
2022/08/05 03:51:23;;;;;;;23.87;17.67;;;;;;;18.22;100.00;100032.04;1747989;82;21093;-69
2022/08/05 03:53:54;;;;;;;26.37;19.87;;;;;;;18.26;100.00;100033.53;1747941;82;21097;-70
2022/08/05 03:56:27;;;;;;;;;;;;;;;18.34;100.00;100042.34;1750267;82;21085;-71
2022/08/05 03:58:57;;;;;;;19.62;14.83;;;;;;;18.41;100.00;100044.94;1744082;81;20218;-70
2022/08/05 04:01:24;;;;;;;24.37;15.83;;;;;;;18.45;100.00;100051.28;1734069;82;21501;-69
2022/08/05 04:03:51;;;;;;;23.35;16.82;;;;;;;18.49;100.00;100054.56;1733826;82;21117;-70
2022/08/05 04:06:18;;;;;;;21.35;17.73;;;;;;;18.49;100.00;100053.23;1734083;82;21050;-71
2022/08/05 04:08:45;;;;;;;22.20;18.30;;;;;;;18.54;100.00;100055.11;1733883;82;21109;-70
2022/08/05 04:11:12;;;;;;;20.15;16.48;;;;;;;18.57;100.00;100054.88;1733834;82;21117;-71
2022/08/05 04:13:40;;;;;;;24.47;17.00;;;;;;;18.56;100.00;100053.16;1733825;82;21253;-70
2022/08/05 04:16:11;;;;;;;24.40;17.12;;;;;;;18.57;100.00;100052.22;1734157;82;21037;-72
2022/08/05 04:18:38;;;;;;;23.57;16.80;;;;;;;18.59;100.00;100050.30;1733775;82;21614;-72
2022/08/05 04:21:06;;;;;;;22.67;16.52;;;;;;;18.60;100.00;100049.32;1733951;82;21093;-71
2022/08/05 04:23:35;;;;;;;19.65;16.70;;;;;;;18.59;100.00;100047.63;1733877;82;21124;-69
2022/08/05 04:26:01;;;;;;;21.75;17.05;;;;;;;18.56;100.00;100047.83;1734038;82;21683;-68
2022/08/05 04:28:27;;;;;;;22.73;17.05;;;;;;;18.54;100.00;100055.57;1733954;82;21700;-68
2022/08/05 04:30:54;;;;;;;19.85;15.90;;;;;;;18.52;100.00;100050.83;1734277;82;21760;-70
2022/08/05 04:33:20;;;;;;;19.80;15.78;;;;;;;18.51;100.00;100045.13;1733795;82;21545;-69
2022/08/05 04:35:47;;;;;;;20.05;16.75;;;;;;;18.51;100.00;100047.31;1733816;82;21062;-70
2022/08/05 04:38:13;;;;;;;22.65;15.95;;;;;;;18.52;100.00;100043.70;1734154;82;21122;-69
2022/08/05 04:40:40;;;;;;;24.50;16.48;;;;;;;18.54;100.00;100041.78;1733860;82;21483;-70
2022/08/05 04:43:07;;;;;;;20.95;16.80;;;;;;;18.58;100.00;100047.24;1734222;82;21097;-70
2022/08/05 04:45:35;;;;;;;20.95;15.93;;;;;;;18.63;100.00;100041.13;1734212;82;21079;-71
2022/08/05 04:48:09;;;;;;;22.55;17.32;;;;;;;18.70;100.00;100043.32;1734375;82;21049;-68
2022/08/05 04:50:43;;;;;;;18.85;15.13;;;;;;;18.76;100.00;100044.23;1734109;82;21749;-69
2022/08/05 04:53:11;;;;;;;20.57;17.42;;;;;;;18.84;100.00;100051.20;1733948;82;21065;-69
2022/08/05 04:55:38;;;;;;;22.75;17.50;;;;;;;18.93;100.00;100061.70;1710162;82;21049;-70
2022/08/05 04:58:07;;;;;;;19.70;16.52;;;;;;;18.96;100.00;100058.34;1705087;83;21121;-69
2022/08/05 05:00:34;;;;;;;19.30;15.75;;;;;;;18.99;100.00;100055.44;1715763;83;21061;-71
2022/08/05 05:03:02;;;;;;;21.57;16.00;;;;;;;19.07;100.00;100055.73;1718205;83;21130;-69
2022/08/05 05:05:29;;;;;;;24.55;16.35;;;;;;;19.16;100.00;100061.34;1718131;83;21101;-71
2022/08/05 05:08:05;;;;;;;18.75;15.83;;;;;;;19.21;100.00;100065.85;1718115;83;20998;-69
2022/08/05 05:10:40;;;;;;;21.25;16.73;;;;;;;19.23;100.00;100066.59;1718344;83;21490;-68
2022/08/05 05:13:11;;;;;;;29.48;19.95;;;;;;;19.24;100.00;100066.48;1718670;83;21108;-70
2022/08/05 05:15:38;;;;;;;28.02;18.80;;;;;;;19.24;100.00;100065.16;1718172;83;21881;-71
2022/08/05 05:18:05;;;;;;;25.77;18.32;;;;;;;19.23;100.00;100077.27;1718170;83;21092;-68
2022/08/05 05:20:31;;;;;;;20.95;18.00;;;;;;;19.21;100.00;100073.86;1718143;83;21072;-69
2022/08/05 05:22:59;;;;;;;24.05;17.95;;;;;;;19.20;100.00;100076.17;1718211;83;21101;-69
2022/08/05 05:25:26;;;;;;;27.15;19.45;;;;;;;19.21;100.00;100073.86;1718194;83;21080;-70
2022/08/05 05:27:54;;;;;;;24.43;18.82;;;;;;;19.21;100.00;100075.19;1718478;83;21225;-70
2022/08/05 05:30:21;;;;;;;26.15;19.48;;;;;;;19.23;100.00;100066.59;1718392;83;21045;-70
2022/08/05 05:32:47;;;;;;;27.05;19.20;;;;;;;19.24;100.00;100077.66;1718367;83;21093;-69
2022/08/05 05:35:15;;;;;;;27.58;21.48;;;;;;;19.23;100.00;100072.81;1718287;83;21050;-70
2022/08/05 05:37:56;;;;;;;32.08;21.35;;;;;;;19.26;100.00;100080.58;1718165;83;21144;-69
2022/08/05 05:40:23;;;;;;;31.05;21.70;;;;;;;19.26;100.00;100081.07;1718266;83;21739;-71
2022/08/05 05:42:50;;;;;;;26.75;21.00;;;;;;;19.23;100.00;100077.27;1718077;83;21010;-71
2022/08/05 05:45:17;;;;;;;30.82;23.25;;;;;;;19.22;100.00;100079.59;1717880;83;21052;-71
2022/08/05 05:47:44;;;;;;;30.52;22.45;;;;;;;19.20;100.00;100079.69;1718079;83;21887;-69
2022/08/05 05:50:13;;;;;;;28.15;21.87;;;;;;;19.19;100.00;100083.83;1718428;83;21056;-72
2022/08/05 05:52:39;;;;;;;29.12;22.25;;;;;;;19.20;100.00;100085.52;1718143;83;21846;-72
2022/08/05 05:55:09;;;;;;;30.48;23.15;;;;;;;19.21;100.00;100085.88;1736222;82;21096;-69
2022/08/05 05:57:36;;;;;;;33.40;23.60;;;;;;;19.22;100.00;100082.25;1748255;82;21719;-69
2022/08/05 06:00:06;;;;;;;29.15;22.40;;;;;;;19.23;100.00;100081.27;1741296;81;21522;-70
2022/08/05 06:02:35;;;;;;;33.05;23.35;;;;;;;19.25;100.00;100087.36;1733915;82;21039;-70
2022/08/05 06:05:01;;;;;;;27.50;21.37;;;;;;;19.28;100.00;100089.82;1734166;82;21794;-69
2022/08/05 06:07:28;;;;;;;28.38;21.65;;;;;;;19.34;100.00;100081.34;1734063;82;21097;-70
2022/08/05 06:09:55;;;;;;;29.60;21.80;;;;;;;19.43;100.00;100088.66;1734147;82;21031;-71
2022/08/05 06:12:21;;;;;;;28.23;22.80;;;;;;;19.53;100.00;100081.30;1734169;82;21046;-71
2022/08/05 06:14:48;;;;;;;33.60;23.87;;;;;;;19.61;100.00;100082.92;1734002;82;21034;-71
2022/08/05 06:17:18;;;;;;;32.90;22.62;;;;;;;19.70;100.00;100082.25;1734164;82;21229;-71
2022/08/05 06:19:47;;;;;;;37.63;24.92;;;;;;;19.75;100.00;100073.89;1733912;82;21068;-71
2022/08/05 06:22:17;;;;;;;32.55;24.52;;;;;;;19.83;100.00;100087.04;1734361;82;21538;-69
2022/08/05 06:24:43;;;;;;;37.40;26.37;;;;;;;19.88;100.00;100085.35;1690465;82;21014;-69
2022/08/05 06:27:10;;;;;;;38.08;26.42;;;;;;;19.89;100.00;100090.55;1734494;82;21089;-69
2022/08/05 06:29:36;;;;;;;37.08;25.88;;;;;;;19.90;100.00;100082.92;1734055;82;21223;-70
2022/08/05 06:32:03;;;;;;;38.40;25.70;;;;;;;19.95;100.00;100085.73;1734627;82;21070;-70
2022/08/05 06:34:30;;;;;;;36.55;26.75;;;;;;;19.97;100.00;100089.11;1734092;82;21543;-70
2022/08/05 06:36:57;;;;;;;37.73;26.65;;;;;;;19.96;100.00;100093.62;1734523;82;21035;-70
2022/08/05 06:39:25;;;;;;;31.70;23.55;;;;;;;19.98;100.00;100088.16;1734143;82;21523;-70
2022/08/05 06:41:51;;;;;;;31.85;24.23;;;;;;;20.02;100.00;100089.64;1734180;82;21683;-68
2022/08/05 06:44:17;;;;;;;34.43;23.98;;;;;;;20.06;100.00;100096.42;1734197;82;21605;-69
2022/08/05 06:46:44;;;;;;;32.53;24.40;;;;;;;20.08;100.00;100097.16;1734110;82;21054;-71
2022/08/05 06:49:10;;;;;;;30.37;23.85;;;;;;;20.11;100.00;100091.59;1734485;82;21578;-70
2022/08/05 06:51:37;;;;;;;33.53;24.95;;;;;;;20.14;100.00;100093.18;1734169;82;21053;-69
2022/08/05 06:54:04;;;;;;;34.10;25.57;;;;;;;20.17;100.00;100098.28;1729371;82;21185;-69
2022/08/05 06:56:32;;;;;;;35.55;26.25;;;;;;;20.22;100.00;100101.44;1704599;84;21074;-69
2022/08/05 06:58:58;;;;;;;37.15;27.58;;;;;;;20.26;100.00;100099.74;1705002;84;21093;-70
2022/08/05 07:01:25;;;;;;;32.08;25.17;;;;;;;20.32;100.00;100100.61;1716761;83;21049;-71
2022/08/05 07:03:52;;;;;;;33.58;26.05;;;;;;;20.32;100.00;100105.96;1718413;83;21002;-67
2022/08/05 07:06:18;;;;;;;39.30;29.10;;;;;;;20.31;100.00;100105.61;1718138;83;21955;-71
2022/08/05 07:08:45;;;;;;;40.65;29.82;;;;;;;20.31;100.00;100110.08;1718127;83;21113;-68
2022/08/05 07:11:11;;;;;;;39.67;30.00;;;;;;;20.25;100.00;100112.77;1718330;83;21506;-70
2022/08/05 07:19:11;;;;;;;40.10;28.47;;;;;;;20.23;100.00;100115.19;1718571;83;21325;-68
2022/08/05 07:21:38;;;;;;;38.35;28.60;;;;;;;20.26;100.00;100114.94;1718245;83;21510;-70
2022/08/05 07:24:05;;;;;;;49.67;29.65;;;;;;;20.33;100.00;100115.67;1718432;83;21061;-69
2022/08/05 07:26:32;;;;;;;121.07;32.67;;;;;;;20.44;100.00;100111.33;1718738;83;21058;-70
2022/08/05 07:28:58;;;;;;;68.57;28.25;;;;;;;20.50;100.00;100112.19;1718361;83;21108;-70
2022/08/05 07:31:25;;;;;;;34.80;26.97;;;;;;;20.57;100.00;100111.22;1718310;83;21277;-69
2022/08/05 07:33:52;;;;;;;52.20;27.77;;;;;;;20.63;100.00;100110.25;1718463;83;20998;-71
2022/08/05 07:36:19;;;;;;;60.88;28.57;;;;;;;20.66;100.00;100118.06;1718240;83;21044;-72
2022/08/05 07:38:45;;;;;;;39.27;25.75;;;;;;;20.68;100.00;100112.10;1718098;83;21105;-70
2022/08/05 07:41:16;;;;;;;38.02;25.27;;;;;;;20.73;100.00;100114.41;1718479;83;20998;-71
2022/08/05 07:43:43;;;;;;;45.63;25.48;;;;;;;20.76;100.00;100106.62;1718121;83;21226;-71
2022/08/05 07:46:09;;;;;;;36.03;25.92;;;;;;;20.80;100.00;100106.72;1718562;83;21062;-72
2022/08/05 07:48:35;;;;;;;36.05;23.98;;;;;;;20.87;100.00;100102.59;1718263;83;21033;-69
2022/08/05 07:51:02;;;;;;;67.40;26.73;;;;;;;20.96;100.00;100107.21;1718278;83;21053;-70
2022/08/05 07:53:28;;;;;;;34.85;24.23;;;;;;;21.00;100.00;100113.99;1718530;83;21607;-71
2022/08/05 07:55:55;;;;;;;36.93;24.67;;;;;;;21.07;100.00;100114.35;1746099;82;21222;-69
2022/08/05 07:58:22;;;;;;;34.90;23.75;;;;;;;21.14;100.00;100117.77;1748307;81;21060;-70
2022/08/05 08:00:49;;;;;;;31.60;23.45;;;;;;;21.19;100.00;100115.17;1741207;82;21019;-71
2022/08/05 08:03:15;;;;;;;28.47;22.77;;;;;;;21.26;100.00;100119.92;1734144;82;21101;-70
2022/08/05 08:05:43;;;;;;;31.70;22.87;;;;;;;21.35;100.00;100116.98;1734230;82;21089;-72
2022/08/05 08:08:10;;;;;;;31.35;23.27;;;;;;;21.44;100.00;100114.92;1734028;82;21099;-68
2022/08/05 08:10:37;;;;;;;40.63;23.32;;;;;;;21.50;100.00;100114.39;1734143;82;21042;-72
2022/08/05 08:13:04;;;;;;;29.10;20.52;;;;;;;21.55;100.00;100118.87;1734489;82;21608;-69
2022/08/05 08:15:30;;;;;;;38.35;21.10;;;;;;;21.73;100.00;100114.30;1733887;82;21285;-71
2022/08/05 08:17:57;;;;;;;36.88;20.88;;;;;;;21.96;100.00;100117.23;1734313;82;21067;-71
2022/08/05 08:20:24;;;;;;;30.25;20.05;;;;;;;22.17;100.00;100119.91;1734012;82;21144;-67
2022/08/05 08:22:54;;;;;;;29.50;19.92;;;;;;;22.35;100.00;100120.69;1734074;82;21066;-69
2022/08/05 08:25:20;;;;;;;26.90;21.10;;;;;;;22.43;100.00;100125.37;1734119;82;21384;-69
2022/08/05 08:27:47;;;;;;;28.80;21.57;;;;;;;22.47;100.00;100119.61;1734222;82;21113;-69
2022/08/05 08:30:14;;;;;;;27.62;19.65;;;;;;;22.58;100.00;100118.69;1734268;82;21529;-69
2022/08/05 08:32:41;;;;;;;29.10;21.30;;;;;;;22.70;100.00;100119.44;1734194;82;21137;-68
2022/08/05 08:35:08;;;;;;;31.70;21.30;;;;;;;22.85;100.00;100121.28;1734395;82;21070;-69
2022/08/05 08:37:34;;;;;;;27.95;19.82;;;;;;;22.93;100.00;100125.45;1734114;82;21088;-68
2022/08/05 08:40:00;;;;;;;33.30;20.15;;;;;;;23.00;100.00;100125.30;1734390;82;21558;-69
2022/08/05 08:42:27;;;;;;;26.60;20.40;;;;;;;23.13;100.00;100121.87;1734441;82;21119;-68
2022/08/05 08:44:54;;;;;;;27.93;19.60;;;;;;;23.25;100.00;100127.47;1713521;82;21189;-68
2022/08/05 08:47:26;;;;;;;26.80;19.75;;;;;;;23.41;100.00;100126.94;1734177;82;21033;-69
2022/08/05 08:49:55;;;;;;;23.92;18.35;;;;;;;23.52;100.00;100131.84;1734446;82;21050;-69
2022/08/05 08:52:24;;;;;;;23.62;18.92;;;;;;;23.58;100.00;100129.45;1734267;82;21042;-70
2022/08/05 08:54:52;;;;;;;27.70;19.23;;;;;;;23.58;100.00;100134.83;1734301;82;21625;-68
2022/08/05 08:57:18;;;;;;;35.98;20.25;;;;;;;23.66;100.00;100134.11;1734608;82;21124;-68
2022/08/05 08:59:45;;;;;;;23.65;19.10;;;;;;;23.75;100.00;100127.92;1734462;82;21514;-69
2022/08/05 09:02:13;;;;;;;26.82;19.85;;;;;;;23.76;100.00;100128.76;1734298;81;21037;-68
2022/08/05 09:04:39;;;;;;;284.75;45.12;;;;;;;23.70;100.00;100129.31;1734331;82;21042;-70
2022/08/05 09:07:06;;;;;;;88.97;24.87;;;;;;;23.69;100.00;100130.28;1734242;82;21030;-70
2022/08/05 09:09:34;;;;;;;31.85;20.30;;;;;;;23.74;100.00;100126.67;1734223;82;21570;-69
2022/08/05 09:12:02;;;;;;;27.37;19.90;;;;;;;23.76;100.00;100129.60;1734357;82;21086;-69
2022/08/05 09:14:31;;;;;;;25.02;19.15;;;;;;;23.69;100.00;100132.98;1734184;82;21125;-70
2022/08/05 09:16:59;;;;;;;22.80;18.35;;;;;;;23.68;100.00;100131.29;1734051;82;21094;-69
2022/08/05 09:19:26;;;;;;;91.55;24.23;;;;;;;23.68;100.00;100128.60;1734210;82;21523;-70
2022/08/05 09:21:53;;;;;;;26.52;21.00;;;;;;;23.70;100.00;100129.31;1734093;82;21263;-70
2022/08/05 09:24:19;;;;;;;26.33;20.40;;;;;;;23.68;100.00;100143.39;1734161;82;21038;-71
2022/08/05 09:26:49;;;;;;;25.57;20.15;;;;;;;23.59;100.00;100133.82;1734130;82;21629;-69
2022/08/05 09:29:15;;;;;;;28.45;21.05;;;;;;;23.50;100.00;100134.66;1713931;82;21065;-69
2022/08/05 09:31:45;;;;;;;27.90;20.85;;;;;;;23.54;100.00;100140.12;1713446;82;21558;-70
2022/08/05 09:34:12;;;;;;;26.27;19.70;;;;;;;23.65;100.00;100141.33;1734309;82;21794;-71
2022/08/05 09:36:51;;;;;;;25.43;19.80;;;;;;;23.79;100.00;100137.91;1734070;82;21089;-68
2022/08/05 09:39:18;;;;;;;24.90;19.02;;;;;;;23.82;100.00;100143.83;1734515;82;21094;-69
2022/08/05 09:42:00;;;;;;;26.15;19.12;;;;;;;23.88;100.00;100133.02;1734321;82;21054;-70
2022/08/05 09:44:42;;;;;;;31.27;20.68;;;;;;;23.98;100.00;100144.61;1734342;82;21061;-70
2022/08/05 09:47:19;;;;;;;41.63;21.50;;;;;;;24.03;100.00;100146.87;1733957;82;21542;-70
2022/08/05 09:49:55;;;;;;;26.95;19.37;;;;;;;24.10;100.00;100146.64;1734291;82;21097;-69
2022/08/05 09:52:29;;;;;;;37.75;22.10;;;;;;;24.06;100.00;100157.33;1734012;82;21031;-70
2022/08/05 09:55:06;;;;;;;27.93;20.70;;;;;;;24.04;100.00;100152.11;1718308;82;21109;-71
2022/08/05 09:57:46;;;;;;;31.05;21.35;;;;;;;24.04;100.00;100148.08;1704938;83;21074;-69
2022/08/05 10:00:23;;;;;;;28.23;20.43;;;;;;;24.01;100.00;100145.66;1704671;83;21134;-70
2022/08/05 10:02:53;;;;;;;24.02;19.35;;;;;;;24.06;100.00;100151.48;1704853;84;21069;-72
2022/08/05 10:05:27;;;;;;;25.95;19.50;;;;;;;24.25;100.00;100148.41;1705043;84;21069;-71
2022/08/05 10:07:58;;;;;;;25.17;18.45;;;;;;;24.44;100.00;100148.34;1704845;84;21066;-71
2022/08/05 10:10:46;;;;;;;21.70;18.80;;;;;;;24.69;100.00;100154.12;1704919;84;21050;-72
2022/08/05 10:13:12;;;;;;;23.47;19.23;;;;;;;24.85;100.00;100151.64;1704866;83;21636;-71
2022/08/05 10:15:39;;;;;;;21.65;18.48;;;;;;;24.94;100.00;100153.08;1661848;84;21061;-69
2022/08/05 10:18:18;;;;;;;22.15;18.95;;;;;;;24.81;99.50;100152.09;1705333;83;21510;-69
2022/08/05 10:20:50;;;;;;;27.27;18.20;;;;;;;24.65;100.00;100160.79;1704877;84;21097;-70
2022/08/05 10:23:24;;;;;;;23.87;17.87;;;;;;;24.53;100.00;100158.78;1705106;84;21097;-70
2022/08/05 10:25:51;;;;;;;26.48;17.32;;;;;;;24.56;100.00;100156.28;1704815;84;21124;-70
2022/08/05 10:28:17;;;;;;;21.27;17.73;;;;;;;24.60;100.00;100158.54;1705002;84;21718;-69
2022/08/05 10:30:44;;;;;;;21.57;16.57;;;;;;;24.72;100.00;100153.82;1704839;84;21093;-72
2022/08/05 10:33:11;;;;;;;21.20;17.15;;;;;;;24.97;100.00;100149.60;1704823;83;21045;-71
2022/08/05 10:35:38;;;;;;;19.80;17.02;;;;;;;25.27;98.47;100154.37;1704882;83;21057;-69
2022/08/05 10:38:06;;;;;;;18.05;16.12;;;;;;;25.49;96.05;100155.30;1704844;84;21210;-71
2022/08/05 10:41:14;;;;;;;18.85;16.93;;;;;;;25.67;94.37;100155.28;1705004;84;21387;-69
2022/08/05 10:43:58;;;;;;;21.62;16.80;;;;;;;25.83;93.75;100152.39;1704553;84;21053;-69
2022/08/05 10:46:44;;;;;;;23.50;17.48;;;;;;;25.90;93.01;100152.15;1704716;84;21507;-69
2022/08/05 10:49:10;;;;;;;201.12;33.67;;;;;;;26.28;92.71;100147.41;1704661;83;21676;-70
2022/08/05 10:51:43;;;;;;;65.62;19.57;;;;;;;26.73;92.22;100146.34;1704654;83;21214;-69
2022/08/05 10:54:09;;;;;;;18.50;15.98;;;;;;;27.24;89.28;100141.00;1710786;82;21023;-70
2022/08/05 10:56:48;;;;;;;195.82;33.20;;;;;;;27.64;83.91;100140.26;1734574;82;21526;-69
2022/08/05 10:59:28;;;;;;;26.75;16.50;;;;;;;27.94;84.03;100135.23;1734255;82;21215;-70
2022/08/05 11:02:11;;;;;;;18.25;14.87;;;;;;;28.19;81.78;100134.72;1739691;82;21558;-69
2022/08/05 11:04:47;;;;;;;16.60;14.23;;;;;;;28.41;79.95;100134.49;1748211;82;21111;-70
2022/08/05 11:07:17;;;;;;;16.45;14.75;;;;;;;28.41;79.92;100132.66;1747949;82;21033;-69
2022/08/05 11:09:49;;;;;;;16.23;14.55;;;;;;;28.47;80.20;100128.43;1748266;81;21049;-71
2022/08/05 11:12:41;;;;;;;19.50;13.98;;;;;;;28.77;79.18;100124.61;1748394;82;21541;-71
2022/08/05 11:15:31;;;;;;;16.80;14.60;;;;;;;29.05;77.31;100124.48;1748210;82;21038;-69
2022/08/05 11:18:08;;;;;;;14.50;13.00;;;;;;;29.21;75.11;100124.09;1748149;82;21538;-69